Time;durP1;ratioP1;P1;durP2;ratioP2;P2;SDS_P1;SDS_P2;PMS_P1;PMS_P2;Temp;Humidity;BMP_temperature;BMP_pressure;BME280_temperature;BME280_humidity;BME280_pressure;Samples;Min_cycle;Max_cycle;Signal;HPM_P1;HPM_P2
2024/04/06 00:00:32;;;;;;;0.35;0.35;;;14.30;99.90;;;;;;4444569;32;20082;-62
2024/04/06 00:02:57;;;;;;;0.37;0.37;;;14.20;99.90;;;;;;4444895;32;20061;-63
2024/04/06 00:05:23;;;;;;;0.30;0.30;;;14.20;99.90;;;;;;4447176;32;20077;-62
2024/04/06 00:07:49;;;;;;;19.95;0.70;;;14.10;99.90;;;;;;4444654;32;20073;-63
2024/04/06 00:10:15;;;;;;;1.23;0.40;;;14.00;99.90;;;;;;4438927;32;20546;-63
2024/04/06 00:12:40;;;;;;;8.25;0.73;;;14.00;99.90;;;;;;4444321;32;20094;-63
2024/04/06 00:15:06;;;;;;;0.40;0.40;;;14.00;99.90;;;;;;4444847;32;20081;-62
2024/04/06 00:17:32;;;;;;;0.40;0.40;;;14.00;99.90;;;;;;4445941;32;20098;-62
2024/04/06 00:19:58;;;;;;;0.62;0.40;;;14.00;99.90;;;;;;4441080;32;20094;-62
2024/04/06 00:22:23;;;;;;;5.65;0.43;;;14.00;99.90;;;;;;4443848;32;21188;-63
2024/04/06 00:24:49;;;;;;;0.60;0.60;;;14.10;99.90;;;;;;4443526;32;20065;-64
2024/04/06 00:27:14;;;;;;;0.40;0.40;;;14.10;99.90;;;;;;4443216;32;20520;-63
2024/04/06 00:29:39;;;;;;;0.50;0.50;;;14.00;99.90;;;;;;4443699;32;20130;-62
2024/04/06 00:32:05;;;;;;;0.40;0.40;;;14.00;99.90;;;;;;4446098;32;20093;-63
2024/04/06 00:34:31;;;;;;;0.40;0.40;;;14.00;99.90;;;;;;4440542;32;20152;-63
2024/04/06 00:36:56;;;;;;;0.30;0.30;;;13.80;99.90;;;;;;4443038;32;20084;-62
2024/04/06 00:39:22;;;;;;;0.47;0.47;;;13.80;99.90;;;;;;4443271;32;20065;-63
2024/04/06 00:41:47;;;;;;;0.70;0.70;;;13.80;99.90;;;;;;4445075;32;20080;-63
2024/04/06 00:44:14;;;;;;;0.57;0.52;;;13.80;99.90;;;;;;4445128;32;20475;-64
2024/04/06 00:46:39;;;;;;;0.50;0.50;;;13.80;99.90;;;;;;4445018;32;20073;-64
2024/04/06 00:49:06;;;;;;;0.37;0.37;;;13.90;99.90;;;;;;4442028;32;20397;-63
2024/04/06 00:51:31;;;;;;;0.40;0.40;;;13.80;99.90;;;;;;4444059;32;20061;-63
2024/04/06 00:53:57;;;;;;;0.30;0.30;;;13.80;99.90;;;;;;4444145;32;20460;-64
2024/04/06 00:56:22;;;;;;;0.40;0.40;;;13.80;99.90;;;;;;4446592;32;20146;-64
2024/04/06 00:58:48;;;;;;;0.68;0.55;;;13.80;99.90;;;;;;4444896;32;20138;-64
2024/04/06 01:01:13;;;;;;;0.32;0.32;;;13.70;99.90;;;;;;4443952;32;20076;-64
2024/04/06 01:03:38;;;;;;;0.40;0.40;;;13.60;99.90;;;;;;4436676;32;20101;-63
2024/04/06 01:06:04;;;;;;;0.50;0.50;;;13.70;99.90;;;;;;4441988;32;20527;-63
2024/04/06 01:08:32;;;;;;;0.40;0.40;;;13.60;99.90;;;;;;4449525;32;20069;-64
2024/04/06 01:10:57;;;;;;;0.50;0.50;;;13.60;99.90;;;;;;4443817;32;20607;-63
2024/04/06 01:13:23;;;;;;;0.40;0.40;;;13.60;99.90;;;;;;4446058;32;20146;-63
2024/04/06 01:15:48;;;;;;;0.60;0.50;;;13.60;99.90;;;;;;4451960;32;20143;-64
2024/04/06 01:18:13;;;;;;;0.35;0.35;;;13.60;99.90;;;;;;4445649;32;20092;-64
2024/04/06 01:20:43;;;;;;;0.50;0.50;;;13.60;99.90;;;;;;4445997;32;20072;-64
2024/04/06 01:23:11;;;;;;;0.52;0.52;;;13.60;99.90;;;;;;4445624;32;20559;-64
2024/04/06 01:25:37;;;;;;;0.55;0.55;;;13.50;99.90;;;;;;4446255;32;20069;-64
2024/04/06 01:28:03;;;;;;;0.43;0.43;;;13.60;99.90;;;;;;4450067;32;20485;-63
2024/04/06 01:30:28;;;;;;;0.40;0.40;;;13.60;99.90;;;;;;4447166;32;20436;-63
2024/04/06 01:32:54;;;;;;;0.57;0.57;;;13.60;99.90;;;;;;4444755;32;20097;-64
2024/04/06 01:35:20;;;;;;;0.50;0.50;;;13.50;99.90;;;;;;4432837;32;20084;-63
2024/04/06 01:37:45;;;;;;;0.50;0.50;;;13.50;99.90;;;;;;4449094;32;20101;-63
2024/04/06 01:40:11;;;;;;;0.50;0.50;;;13.40;99.90;;;;;;4448982;32;20123;-64
2024/04/06 01:42:37;;;;;;;0.50;0.50;;;13.40;99.90;;;;;;4431050;32;20077;-63
2024/04/06 01:45:03;;;;;;;0.40;0.40;;;13.30;99.90;;;;;;4451813;32;20465;-63
2024/04/06 01:47:29;;;;;;;0.40;0.40;;;13.30;99.90;;;;;;4447671;32;20500;-63
2024/04/06 01:49:55;;;;;;;0.40;0.40;;;13.30;99.90;;;;;;4448450;32;20077;-64
2024/04/06 01:52:21;;;;;;;0.50;0.50;;;13.30;99.90;;;;;;4445572;32;20077;-64
2024/04/06 01:54:46;;;;;;;1.77;0.68;;;13.20;99.90;;;;;;4446149;32;20466;-64
2024/04/06 01:57:12;;;;;;;0.30;0.30;;;13.20;99.90;;;;;;4445205;32;20069;-64
2024/04/06 01:59:39;;;;;;;0.30;0.30;;;13.30;99.90;;;;;;4446931;32;20149;-64
2024/04/06 02:02:06;;;;;;;0.70;0.60;;;13.30;99.90;;;;;;4448921;32;20077;-64
2024/04/06 02:04:32;;;;;;;0.50;0.50;;;13.30;99.90;;;;;;4444341;32;20097;-63
2024/04/06 02:06:57;;;;;;;1.77;0.60;;;13.30;99.90;;;;;;4444921;32;20081;-64
2024/04/06 02:09:23;;;;;;;0.70;0.60;;;13.30;99.90;;;;;;4444439;32;20427;-64
2024/04/06 02:11:48;;;;;;;0.40;0.40;;;13.30;99.90;;;;;;4446538;32;20139;-64
2024/04/06 02:14:14;;;;;;;0.40;0.40;;;13.30;99.90;;;;;;4447048;32;20085;-64
2024/04/06 02:16:39;;;;;;;0.40;0.40;;;13.20;99.90;;;;;;4447418;32;20085;-62
2024/04/06 02:19:04;;;;;;;0.47;0.47;;;13.20;99.90;;;;;;4445931;32;20495;-63
2024/04/06 02:21:30;;;;;;;0.40;0.40;;;13.20;99.90;;;;;;4446974;32;20080;-64
2024/04/06 02:23:55;;;;;;;0.70;0.70;;;13.20;99.90;;;;;;4447213;32;20069;-64
2024/04/06 02:26:21;;;;;;;2.80;0.73;;;13.10;99.90;;;;;;4447778;32;20081;-63
2024/04/06 02:28:46;;;;;;;0.60;0.60;;;13.20;99.90;;;;;;4443568;32;20139;-64
2024/04/06 02:31:12;;;;;;;0.82;0.82;;;13.20;99.90;;;;;;4444804;32;20065;-64
2024/04/06 02:33:38;;;;;;;0.30;0.30;;;13.20;99.90;;;;;;4448421;32;20064;-64
2024/04/06 02:36:04;;;;;;;0.45;0.45;;;13.20;99.90;;;;;;4447009;32;20073;-64
2024/04/06 02:38:30;;;;;;;0.50;0.50;;;13.20;99.90;;;;;;4443691;32;20073;-64
2024/04/06 02:40:55;;;;;;;0.60;0.60;;;13.20;99.90;;;;;;4445636;32;20069;-64
2024/04/06 02:43:21;;;;;;;6.57;1.87;;;13.30;99.90;;;;;;4447364;32;20080;-66
2024/04/06 02:45:47;;;;;;;0.40;0.40;;;13.30;99.90;;;;;;4446636;32;20137;-64
2024/04/06 02:48:12;;;;;;;0.62;0.55;;;13.30;99.90;;;;;;4437861;32;20116;-64
2024/04/06 02:50:38;;;;;;;0.73;0.73;;;13.30;99.90;;;;;;4443460;32;20069;-64
2024/04/06 02:53:04;;;;;;;1.08;0.65;;;13.40;99.90;;;;;;4448034;32;20084;-64
2024/04/06 02:55:29;;;;;;;1.60;0.95;;;13.40;99.90;;;;;;4443913;32;20061;-64
2024/04/06 02:57:55;;;;;;;0.65;0.65;;;13.30;99.90;;;;;;4439505;32;20068;-64
2024/04/06 03:00:20;;;;;;;0.50;0.50;;;13.30;99.90;;;;;;4445521;32;20076;-64
2024/04/06 03:02:46;;;;;;;0.37;0.37;;;13.20;99.90;;;;;;4447416;32;20065;-64
2024/04/06 03:05:11;;;;;;;0.40;0.40;;;13.10;99.90;;;;;;4443610;32;20225;-64
2024/04/06 03:07:37;;;;;;;0.45;0.45;;;13.10;99.90;;;;;;4442411;32;20065;-64
2024/04/06 03:10:04;;;;;;;0.40;0.40;;;13.00;99.90;;;;;;4447555;32;20057;-63
2024/04/06 03:12:30;;;;;;;0.35;0.35;;;13.00;99.90;;;;;;4447649;32;20068;-63
2024/04/06 03:14:55;;;;;;;0.40;0.40;;;12.90;99.90;;;;;;4450217;32;20526;-63
2024/04/06 03:17:20;;;;;;;0.60;0.60;;;12.90;99.90;;;;;;4445689;32;20084;-64
2024/04/06 03:19:46;;;;;;;0.40;0.40;;;13.00;99.90;;;;;;4446113;32;20068;-63
2024/04/06 03:22:12;;;;;;;0.40;0.40;;;13.00;99.90;;;;;;4447249;32;20084;-63
2024/04/06 03:24:38;;;;;;;0.32;0.32;;;13.00;99.90;;;;;;4445944;32;20116;-63
2024/04/06 03:27:04;;;;;;;0.35;0.35;;;13.10;99.90;;;;;;4444576;32;20521;-63
2024/04/06 03:29:30;;;;;;;1.15;0.47;;;13.10;99.90;;;;;;4445053;32;20069;-62
2024/04/06 03:31:55;;;;;;;0.40;0.40;;;13.00;99.90;;;;;;4448593;32;20454;-63
2024/04/06 03:34:21;;;;;;;0.82;0.82;;;13.00;99.90;;;;;;4446873;32;20080;-64
2024/04/06 03:36:46;;;;;;;0.50;0.50;;;13.00;99.90;;;;;;4448409;32;20073;-64
2024/04/06 03:39:12;;;;;;;5.70;0.90;;;13.00;99.90;;;;;;4445030;32;20434;-64
2024/04/06 03:41:38;;;;;;;0.52;0.52;;;13.00;99.90;;;;;;4446181;32;20115;-64
2024/04/06 03:44:03;;;;;;;0.40;0.40;;;12.90;99.90;;;;;;4447905;32;20073;-63
2024/04/06 03:46:29;;;;;;;0.50;0.50;;;12.80;99.90;;;;;;4443774;32;20112;-63
2024/04/06 03:48:55;;;;;;;4.85;0.62;;;12.80;99.90;;;;;;4441853;32;20090;-62
2024/04/06 03:51:21;;;;;;;0.45;0.45;;;12.80;99.90;;;;;;4441603;32;20118;-63
2024/04/06 03:53:47;;;;;;;0.50;0.50;;;12.70;99.90;;;;;;4447353;32;20576;-62
2024/04/06 03:56:12;;;;;;;0.40;0.40;;;12.60;99.90;;;;;;4442810;32;20073;-63
2024/04/06 03:58:38;;;;;;;0.98;0.75;;;12.50;99.90;;;;;;4444706;32;20371;-63
2024/04/06 04:01:04;;;;;;;2.30;1.25;;;12.50;99.90;;;;;;4439956;32;20084;-63
2024/04/06 04:03:29;;;;;;;0.57;0.57;;;12.40;99.90;;;;;;4441604;32;20085;-63
2024/04/06 04:05:55;;;;;;;23.00;1.67;;;12.50;99.90;;;;;;4443074;32;20143;-63
2024/04/06 04:08:21;;;;;;;0.40;0.40;;;12.40;99.90;;;;;;4446638;32;20077;-63
2024/04/06 04:10:47;;;;;;;0.30;0.30;;;12.50;99.90;;;;;;4444266;32;20065;-63
2024/04/06 04:13:12;;;;;;;0.30;0.30;;;12.60;99.90;;;;;;4444891;32;20077;-63
2024/04/06 04:15:39;;;;;;;1.80;1.12;;;12.60;99.90;;;;;;4443801;32;20503;-62
2024/04/06 04:18:05;;;;;;;4.72;0.90;;;12.60;99.90;;;;;;4444448;32;20081;-62
2024/04/06 04:20:31;;;;;;;0.40;0.40;;;12.70;99.90;;;;;;4443916;32;20080;-62
2024/04/06 04:22:57;;;;;;;0.40;0.40;;;12.80;99.90;;;;;;4445683;32;20441;-62
2024/04/06 04:25:22;;;;;;;0.40;0.40;;;12.80;99.90;;;;;;4444365;32;20119;-61
2024/04/06 04:27:48;;;;;;;0.40;0.40;;;12.80;99.90;;;;;;4444846;32;20100;-62
2024/04/06 04:30:15;;;;;;;0.60;0.60;;;12.80;99.90;;;;;;4445608;32;20504;-62
2024/04/06 04:32:41;;;;;;;0.35;0.35;;;12.80;99.90;;;;;;4444630;32;20127;-63
2024/04/06 04:35:07;;;;;;;6.53;0.62;;;12.70;99.90;;;;;;4446233;32;20081;-63
2024/04/06 04:37:32;;;;;;;0.40;0.40;;;12.70;99.90;;;;;;4449580;32;20492;-63
2024/04/06 04:39:58;;;;;;;1.73;0.85;;;12.70;99.90;;;;;;4446819;32;20069;-64
2024/04/06 04:42:23;;;;;;;0.70;0.70;;;12.70;99.90;;;;;;4447127;32;20073;-63
2024/04/06 04:44:49;;;;;;;4.30;1.45;;;12.70;99.90;;;;;;4445936;32;20092;-64
2024/04/06 04:47:14;;;;;;;2.62;0.80;;;12.70;99.90;;;;;;4449513;32;20076;-64
2024/04/06 04:49:40;;;;;;;0.45;0.45;;;12.80;99.90;;;;;;4449027;32;20138;-64
2024/04/06 04:52:05;;;;;;;0.80;0.77;;;12.80;99.90;;;;;;4447364;32;20069;-64
2024/04/06 04:54:31;;;;;;;0.40;0.40;;;12.80;99.90;;;;;;4450106;32;20092;-64
2024/04/06 04:56:56;;;;;;;1.17;0.70;;;12.80;99.90;;;;;;4452317;32;20080;-64
2024/04/06 04:59:22;;;;;;;0.60;0.60;;;12.90;99.90;;;;;;4449987;32;20123;-64
2024/04/06 05:01:47;;;;;;;0.40;0.40;;;12.90;99.90;;;;;;4449086;32;20544;-64
2024/04/06 05:04:13;;;;;;;0.50;0.50;;;12.80;99.90;;;;;;4451349;32;20469;-65
2024/04/06 05:06:38;;;;;;;0.70;0.68;;;12.80;99.90;;;;;;4446789;32;20073;-64
2024/04/06 05:09:06;;;;;;;1.50;0.52;;;12.80;99.90;;;;;;4447493;32;20457;-64
2024/04/06 05:11:32;;;;;;;1.30;0.50;;;12.70;99.90;;;;;;4447310;32;20076;-64
2024/04/06 05:13:58;;;;;;;0.60;0.60;;;12.70;99.90;;;;;;4447058;32;20082;-63
2024/04/06 05:16:24;;;;;;;4.65;0.70;;;12.70;99.90;;;;;;4447463;32;20065;-63
2024/04/06 05:18:49;;;;;;;0.52;0.52;;;12.70;99.90;;;;;;4446489;32;20072;-64
2024/04/06 05:21:15;;;;;;;0.50;0.50;;;12.70;99.90;;;;;;4449523;32;20443;-64
2024/04/06 05:23:40;;;;;;;0.60;0.60;;;12.70;99.90;;;;;;4449969;32;20129;-64
2024/04/06 05:26:06;;;;;;;0.40;0.40;;;12.70;99.90;;;;;;4450078;32;20488;-63
2024/04/06 05:28:31;;;;;;;0.40;0.40;;;12.80;99.90;;;;;;4445568;32;20097;-63
2024/04/06 05:30:57;;;;;;;0.50;0.50;;;12.80;99.90;;;;;;4445532;32;20660;-63
2024/04/06 05:33:23;;;;;;;0.60;0.60;;;12.90;99.90;;;;;;4448940;32;20082;-63
2024/04/06 05:35:50;;;;;;;0.50;0.50;;;13.00;99.90;;;;;;4446654;32;20077;-61
2024/04/06 05:38:17;;;;;;;4.95;0.60;;;13.00;99.90;;;;;;4448450;32;20559;-61
2024/04/06 05:40:44;;;;;;;0.30;0.30;;;12.90;99.90;;;;;;4433854;32;20115;-61
2024/04/06 05:43:10;;;;;;;0.30;0.30;;;13.00;99.90;;;;;;4444093;32;20580;-62
2024/04/06 05:45:37;;;;;;;0.40;0.40;;;13.00;99.90;;;;;;4446940;32;20061;-62
2024/04/06 05:48:03;;;;;;;0.40;0.40;;;13.00;99.90;;;;;;4443235;32;20488;-61
2024/04/06 05:50:30;;;;;;;0.88;0.88;;;13.00;99.90;;;;;;4446842;32;20057;-61
2024/04/06 05:52:56;;;;;;;0.30;0.30;;;13.10;99.90;;;;;;4443232;32;20061;-62
2024/04/06 05:55:22;;;;;;;0.57;0.40;;;13.10;99.90;;;;;;4445853;32;20119;-62
2024/04/06 05:57:47;;;;;;;0.30;0.30;;;13.10;99.90;;;;;;4446087;32;20393;-62
2024/04/06 06:00:15;;;;;;;0.30;0.30;;;13.20;99.90;;;;;;4448930;32;20405;-62
2024/04/06 06:02:41;;;;;;;0.50;0.50;;;13.20;99.90;;;;;;4446083;32;20105;-62
2024/04/06 06:05:06;;;;;;;0.32;0.32;;;13.30;99.90;;;;;;4446726;32;20522;-62
2024/04/06 06:07:32;;;;;;;0.50;0.50;;;13.40;99.90;;;;;;4447439;32;20092;-62
2024/04/06 06:09:57;;;;;;;0.55;0.55;;;13.30;99.90;;;;;;4445349;32;20065;-63
2024/04/06 06:12:24;;;;;;;0.50;0.50;;;13.40;99.90;;;;;;4448164;32;20065;-62
2024/04/06 06:14:50;;;;;;;0.43;0.43;;;13.40;99.90;;;;;;4444386;32;20065;-62
2024/04/06 06:17:17;;;;;;;0.50;0.50;;;13.40;99.90;;;;;;4447219;32;20101;-63
2024/04/06 06:19:42;;;;;;;0.60;0.60;;;13.50;99.90;;;;;;4446295;32;20532;-63
2024/04/06 06:22:08;;;;;;;0.60;0.60;;;13.60;99.90;;;;;;4448697;32;20179;-64
2024/04/06 06:24:33;;;;;;;0.43;0.43;;;13.60;99.90;;;;;;4448064;32;20422;-64
2024/04/06 06:26:59;;;;;;;0.55;0.45;;;13.60;99.90;;;;;;4445914;32;21416;-65
2024/04/06 06:29:24;;;;;;;0.95;0.95;;;13.70;99.90;;;;;;4444868;32;20068;-65
2024/04/06 06:31:51;;;;;;;0.50;0.50;;;13.70;99.90;;;;;;4447519;32;20509;-65
2024/04/06 06:34:19;;;;;;;0.80;0.75;;;13.80;99.90;;;;;;4444011;32;20586;-63
2024/04/06 06:36:45;;;;;;;0.40;0.40;;;13.80;99.90;;;;;;4446400;32;20068;-63
2024/04/06 06:39:11;;;;;;;0.50;0.50;;;13.90;99.90;;;;;;4447029;32;20492;-64
2024/04/06 06:41:37;;;;;;;0.40;0.40;;;13.90;99.90;;;;;;4446403;32;20107;-63
2024/04/06 06:44:03;;;;;;;0.57;0.52;;;13.90;99.90;;;;;;4448392;32;20115;-64
2024/04/06 06:46:28;;;;;;;0.60;0.60;;;13.80;99.90;;;;;;4445619;32;20097;-64
2024/04/06 06:48:53;;;;;;;1.05;0.95;;;13.90;99.90;;;;;;4446746;32;20080;-65
2024/04/06 06:51:19;;;;;;;0.50;0.50;;;13.90;99.90;;;;;;4448986;32;20167;-64
2024/04/06 06:53:44;;;;;;;1.60;0.88;;;14.00;99.90;;;;;;4447647;32;20376;-64
2024/04/06 06:56:10;;;;;;;0.40;0.40;;;14.00;99.90;;;;;;4448441;32;20097;-64
2024/04/06 06:58:36;;;;;;;0.47;0.47;;;14.10;99.90;;;;;;4444768;32;20442;-64
2024/04/06 07:01:02;;;;;;;0.40;0.40;;;14.20;99.90;;;;;;4446157;32;20057;-64
2024/04/06 07:03:27;;;;;;;0.50;0.50;;;14.30;99.90;;;;;;4446236;32;20536;-64
2024/04/06 07:05:53;;;;;;;0.30;0.30;;;14.40;99.90;;;;;;4445420;32;20118;-64
2024/04/06 07:08:18;;;;;;;0.62;0.60;;;14.40;99.90;;;;;;4442846;32;20134;-64
2024/04/06 07:10:44;;;;;;;0.73;0.73;;;14.40;99.90;;;;;;4444662;32;20126;-64
2024/04/06 07:13:09;;;;;;;4.10;1.48;;;14.30;99.90;;;;;;4448314;32;20077;-64
2024/04/06 07:15:35;;;;;;;0.40;0.40;;;14.30;99.90;;;;;;4448230;32;20166;-63
2024/04/06 07:18:00;;;;;;;7.82;0.75;;;14.40;99.90;;;;;;4446102;32;20061;-64
2024/04/06 07:20:26;;;;;;;1.00;0.93;;;14.50;99.90;;;;;;4447507;32;20077;-64
2024/04/06 07:22:51;;;;;;;0.30;0.30;;;14.60;99.90;;;;;;4442589;32;20086;-64
2024/04/06 07:25:18;;;;;;;0.50;0.50;;;14.70;99.90;;;;;;4447465;32;20119;-64
2024/04/06 07:27:44;;;;;;;0.30;0.30;;;14.80;99.90;;;;;;4443919;32;20069;-63
2024/04/06 07:30:10;;;;;;;0.40;0.40;;;14.90;99.90;;;;;;4446357;32;20089;-63
2024/04/06 07:32:35;;;;;;;0.40;0.40;;;15.10;99.90;;;;;;4446538;32;20060;-63
2024/04/06 07:35:02;;;;;;;0.52;0.47;;;15.20;99.90;;;;;;4446777;32;20490;-64
2024/04/06 07:37:27;;;;;;;0.52;0.52;;;15.20;99.90;;;;;;4446351;32;20171;-64
2024/04/06 07:39:53;;;;;;;0.50;0.50;;;15.30;99.90;;;;;;4448202;32;20061;-64
2024/04/06 07:42:18;;;;;;;0.37;0.37;;;15.40;99.90;;;;;;4444220;32;20076;-64
2024/04/06 07:44:44;;;;;;;1.00;0.95;;;15.60;99.90;;;;;;4447510;32;20077;-64
2024/04/06 07:47:09;;;;;;;1.00;0.40;;;15.70;99.90;;;;;;4446482;32;21287;-64
2024/04/06 07:49:35;;;;;;;0.30;0.30;;;15.70;99.90;;;;;;4444360;32;20499;-64
2024/04/06 07:52:00;;;;;;;0.55;0.55;;;15.90;99.90;;;;;;4444887;32;20081;-64
2024/04/06 07:54:26;;;;;;;0.30;0.30;;;16.10;99.90;;;;;;4448041;32;20080;-64
2024/04/06 07:56:51;;;;;;;0.45;0.45;;;16.20;99.90;;;;;;4444467;32;20077;-64
2024/04/06 07:59:17;;;;;;;0.30;0.30;;;16.30;99.90;;;;;;4447323;32;20123;-64
2024/04/06 08:01:42;;;;;;;0.90;0.50;;;16.50;99.90;;;;;;4446558;32;20077;-63
2024/04/06 08:04:08;;;;;;;5.20;1.12;;;16.60;99.90;;;;;;4444255;32;20056;-63
2024/04/06 08:06:33;;;;;;;0.88;0.50;;;16.60;99.90;;;;;;4444634;32;20592;-62
2024/04/06 08:08:58;;;;;;;1.10;0.57;;;16.70;99.90;;;;;;4449753;32;20081;-62
2024/04/06 08:11:24;;;;;;;0.40;0.40;;;16.80;99.90;;;;;;4447492;32;20085;-62
2024/04/06 08:13:49;;;;;;;0.30;0.30;;;17.00;99.90;;;;;;4448401;32;20076;-63
2024/04/06 08:16:15;;;;;;;0.85;0.50;;;17.10;99.90;;;;;;4446905;32;20141;-62
2024/04/06 08:18:40;;;;;;;0.40;0.40;;;17.30;99.90;;;;;;4447526;32;20065;-63
2024/04/06 08:21:06;;;;;;;1.85;1.05;;;17.40;99.90;;;;;;4446002;32;20065;-63
2024/04/06 08:23:31;;;;;;;0.30;0.30;;;17.50;99.90;;;;;;4444390;32;20119;-63
2024/04/06 08:25:57;;;;;;;0.40;0.40;;;17.50;99.90;;;;;;4443011;32;20535;-63
2024/04/06 08:28:22;;;;;;;0.30;0.30;;;17.70;99.90;;;;;;4448355;32;20064;-64
2024/04/06 08:30:47;;;;;;;0.40;0.40;;;17.80;99.90;;;;;;4446065;32;20423;-64
2024/04/06 08:33:16;;;;;;;1.50;1.02;;;18.00;99.90;;;;;;4446435;32;20127;-63
2024/04/06 08:35:42;;;;;;;0.35;0.35;;;18.10;99.90;;;;;;4450774;32;20180;-63
2024/04/06 08:38:07;;;;;;;0.47;0.47;;;18.20;99.90;;;;;;4450582;32;20422;-63
2024/04/06 08:40:40;;;;;;;0.40;0.40;;;18.40;99.90;;;;;;4447238;32;20065;-63
2024/04/06 08:43:11;;;;;;;0.30;0.30;;;18.70;99.90;;;;;;4442005;32;20054;-64
2024/04/06 08:45:38;;;;;;;0.50;0.50;;;18.90;99.90;;;;;;4443430;32;20068;-64
2024/04/06 08:48:04;;;;;;;0.30;0.30;;;19.00;99.90;;;;;;4443832;32;20607;-64
2024/04/06 08:50:30;;;;;;;1.65;1.10;;;18.90;99.90;;;;;;4443146;32;20061;-64
2024/04/06 08:52:56;;;;;;;0.37;0.37;;;18.70;99.90;;;;;;4448982;32;20512;-64
2024/04/06 08:55:22;;;;;;;0.35;0.35;;;18.50;99.90;;;;;;4449093;32;20097;-64
2024/04/06 08:57:48;;;;;;;0.28;0.28;;;18.40;99.90;;;;;;4447726;32;20073;-64
2024/04/06 09:00:16;;;;;;;0.40;0.40;;;18.30;99.90;;;;;;4448198;32;20479;-64
2024/04/06 09:02:41;;;;;;;0.30;0.30;;;18.30;99.90;;;;;;4445605;32;20111;-64
2024/04/06 09:05:07;;;;;;;0.40;0.40;;;18.30;99.90;;;;;;4448109;32;20069;-64
2024/04/06 09:07:33;;;;;;;3.85;1.40;;;18.20;99.90;;;;;;4449147;32;20560;-64
2024/04/06 09:09:58;;;;;;;0.40;0.40;;;18.20;99.90;;;;;;4446100;32;20123;-64
2024/04/06 09:12:24;;;;;;;0.37;0.37;;;18.10;99.90;;;;;;4448625;32;20072;-64
2024/04/06 09:14:50;;;;;;;0.30;0.30;;;18.00;99.90;;;;;;4450322;32;20061;-64
2024/04/06 09:17:18;;;;;;;0.30;0.30;;;18.20;99.90;;;;;;4444848;32;20070;-64
2024/04/06 09:19:44;;;;;;;0.40;0.40;;;18.60;99.90;;;;;;4433235;32;20148;-64
2024/04/06 09:22:10;;;;;;;0.50;0.50;;;18.90;99.90;;;;;;4445062;32;20139;-64
2024/04/06 09:24:37;;;;;;;0.30;0.30;;;19.20;99.90;;;;;;4447270;32;20089;-64
2024/04/06 09:27:09;;;;;;;0.40;0.40;;;19.40;99.90;;;;;;4445119;32;20069;-64
2024/04/06 09:29:35;;;;;;;0.32;0.30;;;19.50;99.90;;;;;;4450462;32;20056;-64
2024/04/06 09:32:03;;;;;;;0.30;0.30;;;19.70;99.90;;;;;;4447590;32;20060;-64
2024/04/06 09:34:29;;;;;;;0.40;0.40;;;19.80;99.90;;;;;;4444292;32;20520;-64
2024/04/06 09:37:01;;;;;;;0.20;0.20;;;20.10;99.90;;;;;;4446096;32;20115;-64
2024/04/06 09:39:37;;;;;;;0.40;0.40;;;20.20;99.90;;;;;;4449100;32;20089;-65
2024/04/06 09:42:05;;;;;;;0.30;0.30;;;20.30;99.90;;;;;;4447533;32;20123;-65
2024/04/06 09:44:32;;;;;;;0.50;0.50;;;20.20;99.90;;;;;;4449635;32;20560;-64
2024/04/06 09:46:57;;;;;;;0.47;0.47;;;20.20;99.90;;;;;;4447406;32;20528;-64
2024/04/06 09:49:23;;;;;;;0.30;0.30;;;20.40;99.90;;;;;;4444498;32;20073;-64
2024/04/06 09:51:51;;;;;;;1.35;0.40;;;20.70;99.90;;;;;;4445658;32;20115;-64
2024/04/06 09:54:17;;;;;;;0.40;0.40;;;20.70;99.90;;;;;;4447593;32;20093;-64
2024/04/06 09:56:42;;;;;;;0.20;0.20;;;20.80;99.90;;;;;;4446831;32;20073;-64
2024/04/06 09:59:20;;;;;;;6.45;0.40;;;21.10;99.90;;;;;;4448342;32;20085;-64
2024/04/06 10:01:46;;;;;;;0.50;0.50;;;21.30;99.90;;;;;;4446167;32;20512;-64
2024/04/06 10:04:31;;;;;;;0.30;0.30;;;21.30;99.90;;;;;;4447341;32;20078;-64
2024/04/06 10:06:57;;;;;;;0.20;0.20;;;21.40;99.90;;;;;;4445438;32;20563;-64
2024/04/06 10:09:31;;;;;;;0.20;0.20;;;21.30;99.90;;;;;;4446490;32;20326;-64
2024/04/06 10:11:59;;;;;;;0.30;0.30;;;21.40;99.90;;;;;;4446130;32;20080;-64
2024/04/06 10:14:26;;;;;;;0.20;0.20;;;21.30;99.90;;;;;;4416861;32;20135;-64
2024/04/06 10:16:52;;;;;;;0.22;0.22;;;21.50;99.90;;;;;;4444599;32;20594;-64
2024/04/06 10:19:19;;;;;;;0.20;0.20;;;21.80;99.90;;;;;;4443505;32;20143;-64
2024/04/06 10:21:45;;;;;;;0.25;0.25;;;22.10;99.90;;;;;;4441649;32;20068;-64
2024/04/06 10:24:12;;;;;;;0.35;0.35;;;22.10;99.90;;;;;;4444548;32;20060;-64
2024/04/06 10:26:56;;;;;;;0.30;0.30;;;22.00;99.90;;;;;;4447089;32;20562;-64
2024/04/06 10:29:22;;;;;;;0.20;0.20;;;22.10;99.90;;;;;;4443318;32;20512;-64
2024/04/06 10:31:48;;;;;;;0.32;0.32;;;22.00;99.90;;;;;;4448463;32;20578;-64
2024/04/06 10:34:14;;;;;;;0.20;0.20;;;21.70;99.90;;;;;;4444562;32;20061;-64
2024/04/06 10:36:40;;;;;;;0.28;0.28;;;22.00;99.90;;;;;;4446075;32;20218;-65
2024/04/06 10:39:07;;;;;;;0.30;0.30;;;22.30;99.90;;;;;;4445505;32;20069;-64
2024/04/06 10:41:36;;;;;;;1.00;0.68;;;22.40;99.90;;;;;;4446238;32;20101;-64
2024/04/06 10:44:02;;;;;;;0.13;0.13;;;22.60;99.90;;;;;;4444232;32;20119;-65
2024/04/06 10:46:27;;;;;;;1.55;0.60;;;22.80;99.90;;;;;;4445623;32;20072;-64
2024/04/06 10:48:54;;;;;;;0.10;0.10;;;23.10;99.90;;;;;;4443300;32;20166;-64
2024/04/06 10:51:21;;;;;;;0.17;0.17;;;23.50;99.90;;;;;;4447987;32;20056;-65
2024/04/06 10:53:47;;;;;;;0.15;0.15;;;23.50;99.90;;;;;;4443689;32;20084;-64
2024/04/06 10:56:12;;;;;;;0.45;0.32;;;23.60;99.90;;;;;;4447195;32;20120;-64
2024/04/06 10:58:38;;;;;;;0.20;0.20;;;23.80;99.90;;;;;;4447346;32;20082;-64
2024/04/06 11:01:13;;;;;;;0.00;0.00;;;23.90;99.90;;;;;;4447714;32;20071;-64
2024/04/06 11:03:38;;;;;;;0.10;0.10;;;24.00;99.90;;;;;;4448184;32;20520;-64
2024/04/06 11:06:06;;;;;;;0.20;0.20;;;23.80;99.90;;;;;;4447700;32;20131;-64
2024/04/06 11:08:31;;;;;;;0.10;0.10;;;24.00;99.90;;;;;;4444418;32;20089;-64
2024/04/06 11:10:57;;;;;;;0.10;0.10;;;23.90;99.90;;;;;;4448310;32;20131;-64
2024/04/06 11:13:24;;;;;;;0.80;0.37;;;23.70;99.90;;;;;;4447214;32;20088;-63
2024/04/06 11:15:50;;;;;;;1.25;0.30;;;23.90;99.90;;;;;;4448532;32;20538;-64
2024/04/06 11:18:15;;;;;;;0.10;0.10;;;23.90;99.90;;;;;;4446530;32;20065;-63
2024/04/06 11:20:42;;;;;;;0.10;0.10;;;23.70;99.90;;;;;;4444705;32;20142;-64
2024/04/06 11:23:26;;;;;;;0.00;0.00;;;23.90;99.90;;;;;;4444839;32;20120;-64
2024/04/06 11:25:51;;;;;;;17.10;0.37;;;24.10;99.90;;;;;;4447390;32;20081;-64
2024/04/06 11:28:17;;;;;;;0.10;0.10;;;24.30;99.90;;;;;;4445124;32;20072;-64
2024/04/06 11:30:42;;;;;;;0.28;0.28;;;24.60;99.90;;;;;;4445381;32;20642;-64
2024/04/06 11:33:08;;;;;;;1.65;0.47;;;25.00;99.90;;;;;;4445572;32;20489;-64
2024/04/06 11:35:34;;;;;;;0.10;0.10;;;25.10;99.90;;;;;;4446165;32;20061;-65
2024/04/06 11:38:00;;;;;;;0.10;0.10;;;25.30;99.90;;;;;;4448100;32;20064;-65
2024/04/06 11:40:25;;;;;;;0.20;0.20;;;25.40;99.90;;;;;;4446825;32;20077;-65
2024/04/06 11:42:50;;;;;;;0.10;0.10;;;25.40;99.90;;;;;;4443519;32;20089;-65
2024/04/06 11:45:16;;;;;;;0.10;0.10;;;25.00;99.90;;;;;;4446354;32;20418;-65
2024/04/06 11:47:42;;;;;;;0.10;0.10;;;24.70;99.90;;;;;;4445351;32;20065;-65
2024/04/06 11:50:07;;;;;;;0.03;0.03;;;24.70;99.90;;;;;;4443917;32;20061;-65
2024/04/06 11:52:33;;;;;;;0.10;0.10;;;24.40;99.90;;;;;;4444172;32;20068;-65
2024/04/06 11:54:58;;;;;;;0.20;0.20;;;24.80;99.90;;;;;;4440004;32;102243;-65
2024/04/06 11:57:24;;;;;;;0.10;0.10;;;25.00;99.90;;;;;;4440839;32;20094;-65
2024/04/06 11:59:50;;;;;;;0.10;0.10;;;25.20;99.90;;;;;;4443555;32;20065;-65
2024/04/06 12:02:15;;;;;;;0.10;0.10;;;25.80;99.90;;;;;;4448304;32;20100;-63
2024/04/06 12:04:41;;;;;;;32.45;1.83;;;26.20;99.90;;;;;;4445761;32;20048;-63
2024/04/06 12:07:06;;;;;;;0.00;0.00;;;26.30;99.90;;;;;;4442018;32;20078;-65
2024/04/06 12:09:32;;;;;;;2.67;0.47;;;26.20;99.90;;;;;;4444977;32;20115;-65
2024/04/06 12:11:57;;;;;;;0.00;0.00;;;26.20;99.90;;;;;;4443062;32;20072;-63
2024/04/06 12:14:23;;;;;;;0.10;0.10;;;26.20;99.90;;;;;;4443570;32;20065;-63
2024/04/06 12:16:48;;;;;;;0.65;0.50;;;26.40;99.80;;;;;;4445696;32;21243;-63
2024/04/06 12:19:14;;;;;;;0.20;0.20;;;26.60;98.10;;;;;;4445314;32;20500;-63
2024/04/06 12:21:40;;;;;;;0.10;0.10;;;26.80;98.30;;;;;;4440318;32;20081;-63
2024/04/06 12:24:05;;;;;;;0.10;0.10;;;27.10;98.60;;;;;;4444120;32;20077;-63
2024/04/06 12:26:31;;;;;;;0.40;0.40;;;27.40;97.10;;;;;;4440989;32;20082;-64
2024/04/06 12:28:57;;;;;;;0.10;0.10;;;27.70;97.20;;;;;;4442974;32;20525;-63
2024/04/06 12:31:22;;;;;;;3.70;0.20;;;27.90;96.40;;;;;;4441323;32;20073;-63
2024/04/06 12:33:47;;;;;;;0.00;0.00;;;27.60;96.50;;;;;;4449841;32;20475;-65
2024/04/06 12:36:13;;;;;;;0.20;0.20;;;27.70;96.20;;;;;;4445148;32;20089;-65
2024/04/06 12:38:39;;;;;;;0.10;0.10;;;27.60;96.70;;;;;;4444554;32;20072;-67